Time;durP1;ratioP1;P1;durP2;ratioP2;P2;SDS_P1;SDS_P2;PMS_P1;PMS_P2;Temp;Humidity;BMP_temperature;BMP_pressure;BME280_temperature;BME280_humidity;BME280_pressure;Samples;Min_cycle;Max_cycle;Signal;HPM_P1;HPM_P2
2021/06/20 00:01:05;;;;;;;12.50;7.75;;;27.40;63.30;;;;;;5077737;28;20040;-76
2021/06/20 00:03:32;;;;;;;13.90;6.97;;;27.40;63.40;;;;;;5076423;28;20055;-76
2021/06/20 00:06:05;;;;;;;10.95;6.72;;;27.30;63.70;;;;;;5076753;28;20028;-76
2021/06/20 00:08:31;;;;;;;12.88;7.00;;;27.30;63.70;;;;;;5058615;28;20119;-76
2021/06/20 00:10:57;;;;;;;13.75;7.68;;;27.20;64.20;;;;;;5077014;28;20470;-76
2021/06/20 00:13:24;;;;;;;11.40;6.38;;;27.20;64.10;;;;;;5077427;28;20067;-76
2021/06/20 00:15:51;;;;;;;12.55;7.00;;;27.20;64.80;;;;;;5077368;28;20032;-76
2021/06/20 00:18:17;;;;;;;10.80;6.65;;;27.20;64.50;;;;;;5074196;28;20044;-76
2021/06/20 00:20:46;;;;;;;13.23;7.43;;;27.10;64.70;;;;;;5076379;28;20037;-76
2021/06/20 00:23:13;;;;;;;9.57;7.43;;;27.10;64.70;;;;;;5076160;28;20385;-75
2021/06/20 00:25:40;;;;;;;14.25;7.53;;;27.00;64.90;;;;;;5076810;28;20032;-76
2021/06/20 00:28:06;;;;;;;12.13;6.85;;;27.00;65.00;;;;;;5077567;28;20032;-77
2021/06/20 00:30:34;;;;;;;14.45;7.72;;;27.00;65.20;;;;;;5040856;28;20044;-77
2021/06/20 00:33:00;;;;;;;11.77;7.68;;;27.00;65.30;;;;;;5077501;28;20036;-77
2021/06/20 00:35:27;;;;;;;12.43;8.10;;;26.90;65.60;;;;;;5075794;28;20059;-77
2021/06/20 00:37:55;;;;;;;11.45;7.47;;;26.90;65.80;;;;;;5075604;28;20041;-77
2021/06/20 00:40:22;;;;;;;12.18;7.70;;;26.80;65.90;;;;;;5075273;28;20482;-78
2021/06/20 00:42:48;;;;;;;12.27;6.43;;;26.80;65.90;;;;;;5076512;28;20028;-79
2021/06/20 00:45:17;;;;;;;12.25;7.30;;;26.80;65.90;;;;;;5076282;28;20031;-78
2021/06/20 00:47:43;;;;;;;11.07;7.80;;;26.90;66.10;;;;;;5075822;28;20056;-78
2021/06/20 00:50:12;;;;;;;14.85;8.80;;;26.90;66.10;;;;;;5075809;28;20020;-78
2021/06/20 00:52:39;;;;;;;11.10;7.10;;;26.90;66.30;;;;;;5074539;28;20049;-78
2021/06/20 00:55:06;;;;;;;11.35;7.05;;;27.00;66.20;;;;;;5075135;28;20528;-78
2021/06/20 00:57:33;;;;;;;13.98;8.20;;;27.10;66.20;;;;;;5074722;28;20067;-77
2021/06/20 01:00:00;;;;;;;15.65;8.05;;;27.20;66.40;;;;;;5076576;28;20028;-77
2021/06/20 01:02:27;;;;;;;20.75;9.00;;;27.20;66.80;;;;;;5075688;28;20458;-78
2021/06/20 01:04:55;;;;;;;16.15;8.55;;;27.40;66.70;;;;;;5075075;28;20045;-78
2021/06/20 01:07:23;;;;;;;12.63;8.65;;;27.40;67.00;;;;;;5094062;28;20036;-77
2021/06/20 01:09:51;;;;;;;15.52;8.98;;;27.30;67.20;;;;;;5076090;28;20037;-77
2021/06/20 01:12:19;;;;;;;17.50;8.55;;;27.30;67.70;;;;;;5075716;28;20036;-77
2021/06/20 01:14:47;;;;;;;13.02;8.65;;;27.20;67.80;;;;;;5076684;28;20561;-78
2021/06/20 01:17:15;;;;;;;10.88;8.38;;;27.10;68.00;;;;;;5076328;28;20462;-76
2021/06/20 01:19:42;;;;;;;14.85;8.35;;;27.10;68.00;;;;;;5077799;28;20048;-78
2021/06/20 01:22:23;;;;;;;13.73;8.77;;;27.10;68.10;;;;;;5076134;28;20386;-77
2021/06/20 01:24:57;;;;;;;18.05;7.80;;;27.10;68.20;;;;;;5076135;28;20040;-77
2021/06/20 01:27:39;;;;;;;17.13;9.15;;;27.00;67.90;;;;;;5075146;28;20048;-77
2021/06/20 01:30:09;;;;;;;21.30;8.43;;;27.00;67.90;;;;;;5075525;28;20379;-77
2021/06/20 01:32:35;;;;;;;;;;;26.90;68.00;;;;;;5075094;28;20020;-77
2021/06/20 01:35:02;;;;;;;20.48;8.75;;;26.90;68.20;;;;;;5075771;28;19908;-77
2021/06/20 01:37:29;;;;;;;22.67;9.32;;;26.80;68.40;;;;;;5074889;28;20466;-77
2021/06/20 01:39:56;;;;;;;21.17;8.93;;;26.80;68.40;;;;;;5075030;28;20036;-77
2021/06/20 01:42:23;;;;;;;23.77;9.60;;;26.70;68.30;;;;;;5074624;28;20493;-77
2021/06/20 01:44:59;;;;;;;19.67;8.13;;;26.80;68.60;;;;;;5074805;28;20024;-77
2021/06/20 01:47:27;;;;;;;20.25;7.82;;;26.70;68.30;;;;;;5080364;28;20040;-78
2021/06/20 01:49:55;;;;;;;24.67;7.60;;;26.70;68.30;;;;;;5076315;28;20056;-78
2021/06/20 01:52:23;;;;;;;17.33;8.35;;;26.60;68.20;;;;;;5075032;28;20028;-78
2021/06/20 01:54:50;;;;;;;17.50;6.80;;;26.60;68.10;;;;;;5079165;28;20349;-79
2021/06/20 01:57:18;;;;;;;15.55;6.57;;;26.40;67.80;;;;;;5077707;28;20053;-77
2021/06/20 01:59:45;;;;;;;21.27;5.75;;;26.40;67.00;;;;;;5074660;28;20051;-78
2021/06/20 02:02:11;;;;;;;19.23;6.80;;;26.30;66.90;;;;;;5075369;28;20366;-78
2021/06/20 02:04:37;;;;;;;11.77;5.82;;;26.20;66.80;;;;;;5074460;28;20036;-78
2021/06/20 02:07:06;;;;;;;17.33;5.65;;;26.20;66.70;;;;;;5074948;28;20039;-77
2021/06/20 02:09:32;;;;;;;13.48;5.82;;;26.20;66.70;;;;;;5073945;28;20039;-78
2021/06/20 02:11:58;;;;;;;18.73;4.82;;;26.10;66.90;;;;;;5074240;28;20044;-77
2021/06/20 02:14:25;;;;;;;13.45;4.43;;;26.00;66.20;;;;;;5074073;28;20035;-78
2021/06/20 02:16:51;;;;;;;11.90;4.72;;;26.00;65.70;;;;;;5084281;28;20048;-78
2021/06/20 02:19:17;;;;;;;13.13;6.25;;;26.00;65.80;;;;;;5077598;28;20386;-78
2021/06/20 02:21:43;;;;;;;13.18;5.28;;;25.90;66.10;;;;;;5082343;28;20028;-78
2021/06/20 02:24:09;;;;;;;12.40;5.22;;;25.80;66.00;;;;;;5076490;28;20458;-78
2021/06/20 02:26:36;;;;;;;14.50;5.18;;;25.80;66.30;;;;;;5074726;28;20037;-78
2021/06/20 02:29:02;;;;;;;10.68;5.13;;;25.70;65.80;;;;;;5077085;28;20041;-78
2021/06/20 02:31:28;;;;;;;15.95;4.55;;;25.70;65.90;;;;;;5077704;28;20035;-78
2021/06/20 02:33:54;;;;;;;13.55;5.25;;;25.70;65.80;;;;;;5075010;28;20035;-78
2021/06/20 02:36:21;;;;;;;10.25;4.70;;;25.70;66.20;;;;;;5084279;28;20390;-77
2021/06/20 02:38:47;;;;;;;11.20;4.65;;;25.70;65.70;;;;;;5073413;28;20052;-78
2021/06/20 02:41:13;;;;;;;16.10;5.18;;;25.70;65.40;;;;;;5073054;28;20041;-79
2021/06/20 02:43:40;;;;;;;12.93;5.05;;;25.70;65.80;;;;;;5070706;28;20040;-78
2021/06/20 02:46:06;;;;;;;11.73;4.78;;;25.60;65.90;;;;;;5072612;28;20051;-79
2021/06/20 02:48:32;;;;;;;15.57;4.55;;;25.60;66.40;;;;;;5072300;28;20044;-78
2021/06/20 02:51:01;;;;;;;14.70;5.25;;;25.60;66.80;;;;;;5072215;28;20040;-79
2021/06/20 02:53:27;;;;;;;18.88;4.75;;;25.60;67.30;;;;;;5071810;28;20052;-79
2021/06/20 02:55:53;;;;;;;14.52;5.22;;;25.50;67.40;;;;;;5072175;28;20393;-78
2021/06/20 02:58:20;;;;;;;13.00;5.65;;;25.40;67.90;;;;;;5072160;28;20490;-77
2021/06/20 03:00:46;;;;;;;11.18;4.38;;;25.40;68.30;;;;;;5072569;28;20032;-76
2021/06/20 03:03:12;;;;;;;12.27;4.38;;;25.40;66.50;;;;;;5071640;28;20036;-77
2021/06/20 03:05:38;;;;;;;13.82;4.55;;;25.40;65.90;;;;;;5083002;28;20028;-78
2021/06/20 03:08:05;;;;;;;6.28;3.35;;;25.40;65.00;;;;;;5072540;28;20033;-77
2021/06/20 03:10:32;;;;;;;8.30;4.13;;;25.40;64.50;;;;;;5072195;28;20029;-78
2021/06/20 03:12:58;;;;;;;10.25;3.45;;;25.40;64.30;;;;;;5071821;28;20045;-78
2021/06/20 03:15:24;;;;;;;8.27;3.38;;;25.30;64.50;;;;;;5072202;28;20039;-78
2021/06/20 03:17:50;;;;;;;7.88;3.17;;;25.30;64.10;;;;;;5071697;28;20056;-78
2021/06/20 03:20:17;;;;;;;12.75;3.80;;;25.30;64.50;;;;;;5072219;28;20040;-78
2021/06/20 03:22:43;;;;;;;10.25;3.50;;;25.30;64.70;;;;;;5072448;28;20462;-78
2021/06/20 03:25:09;;;;;;;11.73;4.18;;;25.20;64.60;;;;;;5072561;28;20378;-78
2021/06/20 03:27:37;;;;;;;10.52;4.35;;;25.20;64.90;;;;;;5071994;28;20039;-77
2021/06/20 03:30:04;;;;;;;9.05;3.45;;;25.10;65.50;;;;;;5072712;28;20484;-76
2021/06/20 03:32:30;;;;;;;11.52;3.80;;;25.10;65.40;;;;;;5072095;28;20359;-76
2021/06/20 03:34:56;;;;;;;13.02;4.15;;;25.10;65.40;;;;;;5075767;28;20033;-76
2021/06/20 03:37:23;;;;;;;10.25;2.88;;;25.00;65.40;;;;;;5092954;28;20044;-76
2021/06/20 03:39:49;;;;;;;7.65;2.88;;;25.00;65.10;;;;;;5087826;28;20039;-76
2021/06/20 03:42:16;;;;;;;10.38;3.13;;;24.90;65.00;;;;;;5113741;28;20043;-77
2021/06/20 03:44:42;;;;;;;6.55;2.50;;;24.90;65.30;;;;;;5091480;28;20032;-77
2021/06/20 03:47:09;;;;;;;8.30;2.60;;;24.90;64.40;;;;;;5086707;28;20036;-77
2021/06/20 03:49:35;;;;;;;9.35;2.67;;;24.80;64.60;;;;;;5078047;28;20028;-77
2021/06/20 03:52:02;;;;;;;10.45;2.83;;;24.80;64.70;;;;;;5074546;28;20041;-76
2021/06/20 03:54:28;;;;;;;5.75;2.58;;;24.80;64.80;;;;;;5071396;28;20032;-76
2021/06/20 03:56:55;;;;;;;5.72;2.25;;;24.70;64.60;;;;;;5083827;28;20028;-75
2021/06/20 03:59:24;;;;;;;6.53;2.72;;;24.70;64.60;;;;;;5071445;28;20037;-77
2021/06/20 04:01:50;;;;;;;11.68;2.47;;;24.70;65.00;;;;;;5092306;28;20378;-77
2021/06/20 04:04:16;;;;;;;5.55;2.10;;;24.70;64.40;;;;;;5074129;28;20496;-76
2021/06/20 04:06:46;;;;;;;10.60;2.85;;;24.60;64.50;;;;;;5071475;28;20379;-76
2021/06/20 04:09:12;;;;;;;6.90;2.40;;;24.50;64.80;;;;;;5071334;28;20048;-76
2021/06/20 04:11:38;;;;;;;7.63;2.00;;;24.60;65.60;;;;;;5070867;28;20028;-77
2021/06/20 04:14:04;;;;;;;4.15;2.35;;;24.60;65.00;;;;;;5073772;28;20033;-76
2021/06/20 04:16:31;;;;;;;8.05;2.35;;;24.60;65.10;;;;;;5077689;28;20035;-77
2021/06/20 04:19:00;;;;;;;5.28;2.15;;;24.60;65.30;;;;;;5094993;28;20035;-76
2021/06/20 04:21:27;;;;;;;4.63;1.95;;;24.60;64.40;;;;;;5074925;28;20059;-77
2021/06/20 04:23:53;;;;;;;8.82;2.35;;;24.60;64.30;;;;;;5075208;28;20051;-77
2021/06/20 04:26:19;;;;;;;5.22;1.85;;;24.60;64.10;;;;;;5073517;28;20052;-77
2021/06/20 04:28:46;;;;;;;4.03;1.83;;;24.70;63.50;;;;;;5075510;28;20043;-77
2021/06/20 04:31:12;;;;;;;7.18;2.35;;;24.60;64.20;;;;;;5074560;28;20032;-77
2021/06/20 04:33:38;;;;;;;4.88;2.15;;;24.40;64.70;;;;;;5074619;28;20029;-78
2021/06/20 04:36:04;;;;;;;4.38;2.00;;;24.50;64.60;;;;;;5075277;28;20481;-78
2021/06/20 04:38:31;;;;;;;7.18;1.98;;;25.40;63.40;;;;;;5074805;28;20111;-78
2021/06/20 04:41:03;;;;;;;4.22;1.98;;;25.70;62.60;;;;;;5075998;28;20211;-78
2021/06/20 04:43:41;;;;;;;4.38;1.88;;;25.80;62.40;;;;;;5074684;28;20858;-77
2021/06/20 04:46:34;;;;;;;7.78;2.47;;;25.50;63.00;;;;;;5075053;28;20393;-78
2021/06/20 04:49:07;;;;;;;3.83;1.67;;;26.20;62.90;;;;;;5074937;28;20040;-78
2021/06/20 04:51:42;;;;;;;4.15;1.90;;;26.60;60.30;;;;;;5074322;28;20047;-78
2021/06/20 04:54:13;;;;;;;7.10;2.45;;;26.10;62.70;;;;;;5074737;28;20494;-77
2021/06/20 04:56:40;;;;;;;5.70;2.17;;;26.50;61.10;;;;;;5074248;28;20337;-77
2021/06/20 04:59:08;;;;;;;5.80;2.10;;;26.60;61.90;;;;;;5074737;28;20049;-79
2021/06/20 05:01:35;;;;;;;4.50;2.10;;;27.20;60.60;;;;;;5074246;28;20461;-79
2021/06/20 05:04:01;;;;;;;6.72;2.10;;;26.70;62.20;;;;;;5074388;28;20462;-79
2021/06/20 05:06:27;;;;;;;5.13;2.00;;;26.30;63.30;;;;;;5097813;28;20040;-78
2021/06/20 05:08:53;;;;;;;5.68;1.85;;;26.50;61.90;;;;;;5083081;28;20401;-78
2021/06/20 05:11:20;;;;;;;6.35;2.13;;;25.80;63.40;;;;;;5075655;28;20044;-77
2021/06/20 05:13:46;;;;;;;3.25;1.60;;;25.30;65.40;;;;;;5075622;28;20385;-79
2021/06/20 05:16:13;;;;;;;4.75;2.22;;;25.30;65.40;;;;;;5074872;28;20040;-77
2021/06/20 05:18:39;;;;;;;5.55;2.20;;;24.80;66.80;;;;;;5073567;28;20371;-77
2021/06/20 05:21:05;;;;;;;6.63;2.25;;;24.40;67.40;;;;;;5075145;28;20044;-79
2021/06/20 05:23:31;;;;;;;5.80;2.03;;;24.30;68.00;;;;;;5074105;28;20028;-77
2021/06/20 05:25:58;;;;;;;5.80;3.30;;;24.30;68.60;;;;;;5072246;28;20044;-79
2021/06/20 05:28:24;;;;;;;5.20;2.22;;;24.40;68.60;;;;;;5073461;28;20496;-77
2021/06/20 05:30:50;;;;;;;4.32;2.00;;;24.60;68.20;;;;;;5074932;28;20037;-78
2021/06/20 05:33:18;;;;;;;7.10;2.20;;;24.80;67.10;;;;;;5073657;28;20036;-77
2021/06/20 05:35:46;;;;;;;3.33;2.08;;;24.90;66.70;;;;;;5072146;28;20051;-77
2021/06/20 05:38:13;;;;;;;5.32;2.65;;;24.80;68.20;;;;;;5073714;28;20130;-79
2021/06/20 05:40:41;;;;;;;3.67;1.77;;;24.80;67.40;;;;;;5073496;28;20446;-78
2021/06/20 05:43:07;;;;;;;4.68;2.38;;;24.50;68.00;;;;;;5073821;28;20036;-77
2021/06/20 05:45:36;;;;;;;6.20;2.20;;;24.10;68.80;;;;;;5073352;28;20032;-77
2021/06/20 05:48:03;;;;;;;4.82;2.30;;;24.00;69.10;;;;;;5083891;28;20040;-78
2021/06/20 05:50:29;;;;;;;7.60;2.38;;;23.90;69.30;;;;;;5073252;28;20037;-77
2021/06/20 05:52:56;;;;;;;7.35;2.03;;;23.80;69.70;;;;;;5073579;28;20032;-76
2021/06/20 05:55:22;;;;;;;6.10;1.90;;;23.80;69.40;;;;;;5072418;28;20045;-75
2021/06/20 05:57:49;;;;;;;5.72;2.45;;;23.80;69.90;;;;;;5072850;28;20510;-76
2021/06/20 06:00:15;;;;;;;5.80;2.03;;;24.20;68.70;;;;;;5073687;28;20051;-78
2021/06/20 06:02:42;;;;;;;3.45;2.17;;;24.50;67.50;;;;;;5072727;28;20492;-75
2021/06/20 06:05:09;;;;;;;4.03;2.33;;;25.10;66.00;;;;;;5073074;28;20040;-75
2021/06/20 06:07:36;;;;;;;6.38;2.38;;;25.00;66.90;;;;;;5083071;28;20045;-75
2021/06/20 06:10:05;;;;;;;5.75;2.67;;;25.40;65.20;;;;;;5085269;28;20032;-75
2021/06/20 06:12:32;;;;;;;7.68;2.35;;;26.20;64.40;;;;;;5087440;28;20098;-76
2021/06/20 06:15:00;;;;;;;5.78;2.70;;;26.50;63.20;;;;;;5073177;28;20035;-77
2021/06/20 06:17:26;;;;;;;6.32;2.00;;;26.30;62.70;;;;;;5087157;28;20458;-77
2021/06/20 06:19:53;;;;;;;5.70;2.40;;;25.90;64.60;;;;;;5074427;28;20044;-75
2021/06/20 06:22:20;;;;;;;5.80;1.98;;;26.50;62.90;;;;;;5081337;28;20045;-76
2021/06/20 06:24:48;;;;;;;4.85;1.95;;;26.70;62.30;;;;;;5072594;28;20040;-75
2021/06/20 06:27:15;;;;;;;4.47;1.88;;;26.10;63.90;;;;;;5072442;28;20033;-74
2021/06/20 06:29:42;;;;;;;4.75;2.28;;;26.40;62.80;;;;;;5072130;28;20091;-75
2021/06/20 06:32:09;;;;;;;4.25;2.15;;;26.30;62.40;;;;;;5073120;28;20485;-74
2021/06/20 06:34:37;;;;;;;5.75;2.00;;;25.80;63.30;;;;;;5072470;28;20028;-73
2021/06/20 06:37:04;;;;;;;3.90;2.15;;;25.50;64.00;;;;;;5071799;28;20043;-73
2021/06/20 06:39:31;;;;;;;5.30;1.83;;;25.40;64.90;;;;;;5088950;28;20043;-73
2021/06/20 06:41:58;;;;;;;3.78;2.03;;;26.20;63.20;;;;;;5094034;28;20032;-73
2021/06/20 06:44:26;;;;;;;6.07;2.72;;;25.80;66.30;;;;;;5086604;28;20029;-74
2021/06/20 06:46:53;;;;;;;6.38;2.47;;;25.40;64.60;;;;;;5072686;28;20032;-74
2021/06/20 06:49:20;;;;;;;5.00;2.28;;;25.80;64.00;;;;;;5072198;28;20032;-72
2021/06/20 06:51:47;;;;;;;5.75;2.20;;;26.40;63.00;;;;;;5085420;28;20035;-72
2021/06/20 06:54:13;;;;;;;5.60;2.00;;;27.10;61.60;;;;;;5089030;28;20024;-72
2021/06/20 06:56:39;;;;;;;3.97;2.58;;;27.60;60.40;;;;;;5088288;28;20032;-72
2021/06/20 06:59:05;;;;;;;6.28;2.38;;;27.10;60.70;;;;;;5082259;28;20423;-72
2021/06/20 07:01:32;;;;;;;4.75;2.50;;;26.70;62.40;;;;;;5065483;28;20500;-72
2021/06/20 07:03:58;;;;;;;5.03;1.80;;;26.60;62.30;;;;;;5072269;28;20469;-72
2021/06/20 07:06:24;;;;;;;3.25;2.08;;;26.90;62.50;;;;;;5070847;28;20044;-73
2021/06/20 07:08:52;;;;;;;4.25;1.92;;;27.50;61.10;;;;;;5084032;28;20036;-72
2021/06/20 07:11:19;;;;;;;5.10;2.15;;;27.40;60.30;;;;;;5071747;28;20041;-72
2021/06/20 07:13:46;;;;;;;4.15;1.73;;;27.40;60.60;;;;;;5071353;28;20508;-73
2021/06/20 07:16:12;;;;;;;3.45;2.30;;;27.10;61.20;;;;;;5071553;28;20052;-72
2021/06/20 07:18:38;;;;;;;4.85;1.77;;;27.10;61.10;;;;;;5071458;28;20047;-72
2021/06/20 07:21:05;;;;;;;5.07;1.73;;;26.70;61.50;;;;;;5071756;28;20099;-73
2021/06/20 07:23:32;;;;;;;6.50;1.90;;;26.70;62.20;;;;;;5081040;28;20043;-71
2021/06/20 07:25:58;;;;;;;8.75;2.78;;;27.00;61.10;;;;;;5071627;28;20449;-71
2021/06/20 07:28:25;;;;;;;3.47;1.85;;;27.10;60.50;;;;;;5071978;28;20047;-73
2021/06/20 07:30:52;;;;;;;5.10;2.17;;;26.90;60.80;;;;;;5082530;28;20393;-72
2021/06/20 07:33:20;;;;;;;4.88;2.15;;;26.80;62.10;;;;;;5071935;28;20028;-72
2021/06/20 07:35:51;;;;;;;8.65;2.35;;;27.60;60.10;;;;;;5071229;28;20037;-72
2021/06/20 07:38:19;;;;;;;5.53;1.73;;;28.30;58.90;;;;;;5071326;28;20052;-72
2021/06/20 07:40:45;;;;;;;5.18;2.22;;;27.60;60.00;;;;;;5085506;28;20602;-72
2021/06/20 07:43:11;;;;;;;4.88;1.83;;;27.60;60.00;;;;;;5071537;28;20044;-72
2021/06/20 07:45:38;;;;;;;4.13;2.20;;;28.20;59.00;;;;;;5071180;28;20055;-73
2021/06/20 07:48:11;;;;;;;4.88;2.45;;;28.10;58.10;;;;;;5071931;28;20032;-72
2021/06/20 07:50:37;;;;;;;9.00;2.55;;;27.00;61.70;;;;;;5075408;28;20037;-73
2021/06/20 07:53:04;;;;;;;3.33;1.98;;;26.90;61.00;;;;;;5075809;28;20040;-73
2021/06/20 07:55:30;;;;;;;4.53;2.10;;;26.70;62.30;;;;;;5074902;28;20028;-73
2021/06/20 07:57:56;;;;;;;5.28;2.30;;;26.70;61.60;;;;;;5074850;28;20052;-72
2021/06/20 08:00:23;;;;;;;4.82;2.03;;;27.50;60.90;;;;;;5075144;28;20048;-72
2021/06/20 08:02:49;;;;;;;3.63;1.77;;;28.70;59.30;;;;;;5075875;28;20470;-71
2021/06/20 08:05:16;;;;;;;5.93;1.90;;;28.50;57.40;;;;;;5086558;28;20381;-71
2021/06/20 08:07:43;;;;;;;4.97;2.22;;;28.60;58.30;;;;;;5072863;28;20134;-72
2021/06/20 08:10:10;;;;;;;6.07;2.00;;;29.60;57.20;;;;;;5074952;28;20032;-72
2021/06/20 08:12:36;;;;;;;5.13;2.17;;;29.10;57.10;;;;;;5074704;28;20032;-72
2021/06/20 08:15:03;;;;;;;2.97;1.85;;;29.10;57.70;;;;;;5075809;28;20462;-72
2021/06/20 08:17:29;;;;;;;5.38;2.25;;;29.10;57.30;;;;;;5074444;28;20544;-73
2021/06/20 08:19:56;;;;;;;5.32;2.08;;;28.60;57.30;;;;;;5076542;28;20053;-72
2021/06/20 08:22:22;;;;;;;5.07;1.88;;;28.60;57.80;;;;;;5078559;28;20036;-72
2021/06/20 08:24:50;;;;;;;6.72;2.17;;;29.30;57.30;;;;;;5090758;28;20028;-72
2021/06/20 08:27:17;;;;;;;5.88;1.90;;;28.90;57.00;;;;;;5087440;28;20474;-72
2021/06/20 08:29:43;;;;;;;5.63;2.60;;;27.10;58.50;;;;;;5077639;28;20244;-72
2021/06/20 08:32:09;;;;;;;4.30;2.10;;;27.70;58.20;;;;;;5074659;28;20036;-72
2021/06/20 08:34:35;;;;;;;5.05;1.73;;;28.60;57.10;;;;;;5074508;28;20035;-72
2021/06/20 08:37:02;;;;;;;2.72;1.80;;;28.00;57.20;;;;;;5074703;28;20481;-73
2021/06/20 08:39:29;;;;;;;5.80;1.63;;;28.30;57.60;;;;;;5074260;28;20033;-73
2021/06/20 08:41:55;;;;;;;6.05;1.95;;;27.60;57.40;;;;;;5074511;28;20040;-73
2021/06/20 08:44:30;;;;;;;4.53;2.47;;;26.90;58.80;;;;;;5074354;28;20032;-72
2021/06/20 08:46:58;;;;;;;5.18;2.42;;;26.40;60.20;;;;;;5074460;28;20029;-71
2021/06/20 08:49:25;;;;;;;4.72;2.38;;;26.20;60.70;;;;;;5073185;28;20055;-72
2021/06/20 08:51:53;;;;;;;7.45;1.90;;;26.50;60.80;;;;;;5073052;28;20143;-72
2021/06/20 08:54:20;;;;;;;3.92;1.48;;;26.40;60.60;;;;;;5081447;28;20378;-72
2021/06/20 08:56:49;;;;;;;5.47;1.88;;;25.80;60.90;;;;;;5077206;28;20044;-72
2021/06/20 08:59:20;;;;;;;6.20;2.20;;;26.10;61.90;;;;;;5074191;28;20047;-71
2021/06/20 09:01:47;;;;;;;5.47;2.35;;;26.30;60.80;;;;;;5074215;28;20031;-70
2021/06/20 09:04:36;;;;;;;5.78;2.38;;;26.50;60.40;;;;;;5074442;28;20025;-71
2021/06/20 09:07:04;;;;;;;4.87;2.10;;;26.70;60.10;;;;;;5074621;28;20032;-72
2021/06/20 09:09:31;;;;;;;4.43;2.25;;;26.90;60.60;;;;;;5073453;28;20049;-72
2021/06/20 09:12:10;;;;;;;3.60;2.10;;;27.30;59.90;;;;;;5074381;28;20028;-72
2021/06/20 09:14:50;;;;;;;7.40;2.40;;;27.10;59.50;;;;;;5073604;28;20041;-72
2021/06/20 09:17:28;;;;;;;;;;;27.10;60.20;;;;;;5074129;28;20059;-72
2021/06/20 09:20:03;;;;;;;4.93;2.33;;;27.20;60.80;;;;;;5074325;28;20288;-71
2021/06/20 09:22:29;;;;;;;7.47;2.60;;;27.20;60.30;;;;;;5072690;28;20041;-72
2021/06/20 09:25:03;;;;;;;4.20;1.98;;;27.10;61.20;;;;;;5074173;28;20446;-72
2021/06/20 09:27:30;;;;;;;6.18;2.78;;;27.40;60.80;;;;;;5073501;28;20032;-72
2021/06/20 09:30:07;;;;;;;4.03;2.30;;;27.40;60.70;;;;;;5073704;28;20036;-72
2021/06/20 09:32:33;;;;;;;5.28;2.30;;;27.50;60.50;;;;;;5073449;28;20028;-71
2021/06/20 09:35:00;;;;;;;5.15;2.25;;;27.60;60.00;;;;;;5086727;28;20087;-71
2021/06/20 09:37:28;;;;;;;4.28;2.83;;;27.60;59.70;;;;;;5073076;28;20047;-72
2021/06/20 09:39:54;;;;;;;5.00;2.47;;;27.60;59.60;;;;;;5074010;28;20401;-72
2021/06/20 09:42:20;;;;;;;4.07;2.20;;;27.50;60.20;;;;;;5073886;28;20035;-72
2021/06/20 09:44:55;;;;;;;5.25;2.20;;;27.30;59.90;;;;;;5072517;28;20040;-72
2021/06/20 09:47:24;;;;;;;3.42;2.30;;;27.00;59.90;;;;;;5073232;28;20055;-72
2021/06/20 09:49:54;;;;;;;5.50;1.95;;;26.30;61.20;;;;;;5072096;28;20045;-72
2021/06/20 09:52:34;;;;;;;4.97;2.03;;;26.50;61.50;;;;;;5072041;28;20040;-72
2021/06/20 09:55:04;;;;;;;7.03;2.47;;;26.40;61.80;;;;;;5073667;28;20032;-72
2021/06/20 09:57:39;;;;;;;4.85;2.05;;;26.40;61.00;;;;;;5072783;28;20494;-72
2021/06/20 10:00:07;;;;;;;5.15;2.28;;;26.20;61.00;;;;;;5087988;28;20048;-71
2021/06/20 10:02:42;;;;;;;4.97;2.20;;;26.40;61.10;;;;;;5073032;28;20751;-71
2021/06/20 10:05:10;;;;;;;4.97;1.98;;;26.20;60.60;;;;;;5073359;28;20032;-72
2021/06/20 10:07:37;;;;;;;10.80;2.40;;;26.20;61.50;;;;;;5072851;28;20032;-72
2021/06/20 10:10:06;;;;;;;6.95;2.65;;;26.20;61.50;;;;;;5073179;28;20029;-72
2021/06/20 10:12:33;;;;;;;4.78;2.60;;;26.20;61.70;;;;;;5072440;28;20394;-73
2021/06/20 10:15:02;;;;;;;3.47;2.13;;;26.10;62.40;;;;;;5073432;28;20075;-73
2021/06/20 10:17:35;;;;;;;6.13;4.47;;;25.90;64.10;;;;;;5072296;28;20031;-73
2021/06/20 10:20:08;;;;;;;7.65;3.13;;;25.70;64.30;;;;;;5073400;28;20090;-72
2021/06/20 10:22:43;;;;;;;4.30;2.53;;;25.50;64.10;;;;;;5072409;28;20048;-72
2021/06/20 10:25:11;;;;;;;6.78;2.33;;;25.50;64.80;;;;;;5073081;28;20024;-72
2021/06/20 10:27:41;;;;;;;6.70;3.00;;;25.50;65.20;;;;;;5072711;28;20040;-72
2021/06/20 10:30:09;;;;;;;;;;;25.40;65.50;;;;;;5074482;28;20043;-72
2021/06/20 10:32:44;;;;;;;5.82;2.53;;;25.30;65.70;;;;;;5071161;28;19915;-70
2021/06/20 10:35:22;;;;;;;5.85;3.08;;;25.10;66.30;;;;;;5072904;28;20048;-71
2021/06/20 10:37:51;;;;;;;7.13;2.83;;;25.50;66.30;;;;;;5072325;28;20036;-71
2021/06/20 10:40:23;;;;;;;5.10;2.65;;;25.60;66.00;;;;;;5073040;28;20043;-72
2021/06/20 10:42:52;;;;;;;5.25;2.75;;;26.10;65.50;;;;;;5072123;28;20025;-72
2021/06/20 10:45:27;;;;;;;7.43;2.73;;;26.60;64.40;;;;;;5072777;28;20040;-72
2021/06/20 10:47:54;;;;;;;4.55;2.38;;;27.10;63.70;;;;;;5072744;28;20347;-71
2021/06/20 10:50:20;;;;;;;3.45;2.35;;;27.50;62.40;;;;;;5072234;28;20051;-72
2021/06/20 10:52:57;;;;;;;4.15;2.38;;;27.70;61.50;;;;;;5071408;28;20036;-72
2021/06/20 10:55:24;;;;;;;4.65;2.50;;;27.80;61.90;;;;;;5073661;28;20032;-72
2021/06/20 10:57:51;;;;;;;6.00;2.35;;;28.20;59.60;;;;;;5075070;28;20402;-71
2021/06/20 11:00:25;;;;;;;5.90;2.72;;;27.90;59.50;;;;;;5073077;28;20433;-72
2021/06/20 11:02:51;;;;;;;3.47;1.88;;;28.20;59.80;;;;;;5071753;28;20055;-72
2021/06/20 11:05:24;;;;;;;4.70;2.25;;;28.10;59.00;;;;;;5072561;28;20033;-72
2021/06/20 11:08:05;;;;;;;5.50;2.60;;;27.70;60.60;;;;;;5071928;28;20036;-72
2021/06/20 11:10:31;;;;;;;6.15;2.08;;;27.50;59.80;;;;;;5072279;28;20063;-73
2021/06/20 11:12:58;;;;;;;4.90;2.05;;;27.60;60.40;;;;;;5072069;28;20028;-73
2021/06/20 11:15:27;;;;;;;4.65;2.40;;;27.60;60.40;;;;;;5072183;28;20024;-72
2021/06/20 11:18:06;;;;;;;;;;;27.70;60.10;;;;;;5072852;28;20377;-71
2021/06/20 11:20:33;;;;;;;4.77;2.53;;;27.70;59.40;;;;;;5071941;28;19916;-71
2021/06/20 11:23:01;;;;;;;3.33;2.03;;;27.80;59.20;;;;;;5072341;28;20032;-72
2021/06/20 11:25:28;;;;;;;7.45;2.67;;;27.10;59.40;;;;;;5072092;28;20028;-72
2021/06/20 11:27:55;;;;;;;3.92;2.75;;;27.50;59.40;;;;;;5072004;28;20045;-72
2021/06/20 11:30:22;;;;;;;4.78;2.28;;;28.30;58.20;;;;;;5072131;28;20036;-71
2021/06/20 11:32:49;;;;;;;7.28;2.10;;;27.60;57.60;;;;;;5071769;28;20033;-71
2021/06/20 11:35:17;;;;;;;3.72;2.20;;;27.10;58.90;;;;;;5071560;28;20048;-71
2021/06/20 11:37:55;;;;;;;4.78;2.38;;;27.30;58.90;;;;;;5071726;28;20036;-71
2021/06/20 11:40:26;;;;;;;5.50;2.15;;;27.40;57.70;;;;;;5071323;28;20052;-71
2021/06/20 11:42:54;;;;;;;4.20;2.53;;;27.70;58.40;;;;;;5086393;28;20036;-72
2021/06/20 11:45:22;;;;;;;4.60;2.00;;;28.00;57.90;;;;;;5071801;28;20037;-72
2021/06/20 11:47:51;;;;;;;2.58;1.98;;;28.60;57.20;;;;;;5071359;28;20036;-72
2021/06/20 11:50:25;;;;;;;3.90;2.17;;;28.60;56.90;;;;;;5072266;28;20033;-72
2021/06/20 11:53:01;;;;;;;4.80;2.50;;;27.60;58.10;;;;;;5071358;28;20043;-72
2021/06/20 11:55:31;;;;;;;8.18;3.13;;;27.30;58.30;;;;;;5071966;28;20446;-71
2021/06/20 11:58:01;;;;;;;;;;;27.40;59.40;;;;;;5071246;28;20039;-72
2021/06/20 12:00:27;;;;;;;;;;;27.60;58.80;;;;;;5072346;28;19939;-72
2021/06/20 12:03:11;;;;;;;5.82;1.90;;;27.80;57.50;;;;;;5071846;28;19908;-72
2021/06/20 12:05:53;;;;;;;5.40;2.08;;;27.90;56.90;;;;;;5084721;28;20040;-73
2021/06/20 12:08:19;;;;;;;5.93;2.35;;;27.70;57.70;;;;;;5072330;28;20505;-72
2021/06/20 12:10:47;;;;;;;5.78;2.42;;;28.40;57.10;;;;;;5071504;28;20043;-73
2021/06/20 12:13:14;;;;;;;5.40;1.73;;;28.90;54.60;;;;;;5072156;28;20032;-73
2021/06/20 12:15:42;;;;;;;7.00;2.25;;;28.80;56.40;;;;;;5071839;28;20029;-72
2021/06/20 12:18:10;;;;;;;10.40;2.65;;;28.80;55.90;;;;;;5082067;28;20462;-72
2021/06/20 12:20:42;;;;;;;4.15;1.95;;;28.20;57.10;;;;;;5071709;28;20037;-72
2021/06/20 12:23:20;;;;;;;4.93;2.00;;;28.60;55.90;;;;;;5070395;28;20382;-72
2021/06/20 12:25:48;;;;;;;5.47;2.45;;;28.80;55.60;;;;;;5069731;28;20041;-72
2021/06/20 12:28:16;;;;;;;5.40;2.28;;;28.60;55.70;;;;;;5072301;28;20370;-73
2021/06/20 12:30:45;;;;;;;8.32;2.95;;;28.60;55.80;;;;;;5071369;28;20068;-73
2021/06/20 12:33:14;;;;;;;5.22;2.10;;;28.70;56.10;;;;;;5071734;28;20458;-73
2021/06/20 12:35:43;;;;;;;5.80;2.45;;;28.30;56.10;;;;;;5074074;28;20482;-73
2021/06/20 12:38:23;;;;;;;7.20;2.67;;;28.40;56.50;;;;;;5088126;28;20044;-71
2021/06/20 12:40:50;;;;;;;9.43;2.72;;;28.50;56.20;;;;;;5077481;28;20052;-73
2021/06/20 12:43:22;;;;;;;4.38;2.38;;;27.90;56.00;;;;;;5093053;28;20036;-73
2021/06/20 12:46:05;;;;;;;7.80;2.30;;;28.10;57.30;;;;;;5085468;28;20028;-73
2021/06/20 12:48:37;;;;;;;7.68;2.88;;;27.90;56.70;;;;;;5084064;28;20029;-74
2021/06/20 12:51:05;;;;;;;8.27;3.30;;;28.20;57.10;;;;;;5080222;28;20035;-73